Data for 10/06/2008

Time Sea-Level Adjusted Pressure Absolute Pressure Temperature Relative Humidity Dew Point   
(mb) (inHg) (mb) (inHg) (C) (F) (%) (C) (F)
00:05 1015 29.97 844 24.92 7 44.6 54 -1.7 28.9
00:10 1015 29.97 845 24.95 7.1 44.8 53 -1.9 28.5
00:15 1015 29.97 844 24.92 7.5 45.5 50 -2.2 28
00:20 1015 29.97 844 24.92 8 46.3 49 -2.2 28
00:25 1015 29.97 845 24.95 8.5 47.2 45 -2.7 27.1
00:30 1015 29.97 845 24.95 8.8 47.9 45 -2.6 27.4
00:35 1015 29.97 845 24.95 9 48.3 42 -3 26.6
00:40 1015 29.97 845 24.95 9.3 48.8 43 -2.5 27.5
00:45 1015 29.97 845 24.95 9.3 48.7 46 -1.7 28.9
00:50 1015 29.97 845 24.95 9 48.2 47 -1.7 29
00:55 1016 30 845 24.95 8.8 47.8 48 -1.5 29.3
01:00 1016 30 845 24.95 8.6 47.6 49 -1.3 29.6
01:05 1016 30 845 24.95 8.5 47.3 51 -1.1 30
01:10 1016 30 845 24.95 8.3 46.9 52 -1 30.2
01:15 1016 30 845 24.95 8.1 46.5 54 -0.7 30.7
01:20 1016 30 845 24.95 7.9 46.2 53 -1 30.2
01:25 1016 30 845 24.95 7.8 46 55 -0.6 30.9
01:30 1016 30 845 24.95 7.6 45.8 57 -0.4 31.3
01:35 1016 30 845 24.95 7.5 45.4 55 -1 30.2
01:40 1016 30 845 24.95 7.2 45 57 -0.6 30.8
01:45 1016 30 845 24.95 7.1 44.7 56 -1.2 29.9
01:50 1016 30 845 24.95 7.1 44.7 56 -1.1 30
01:55 1016 30 845 24.95 7.1 44.7 56 -1.1 30
02:00 1016 30 845 24.95 6.9 44.4 56 -1.4 29.5
02:05 1016 30 845 24.95 6.7 44.1 55 -1.7 28.9
02:10 1016 30 845 24.95 6.9 44.4 54 -1.9 28.6
02:15 1016 30 845 24.95 6.9 44.5 53 -1.9 28.5
02:20 1016 30 845 24.95 7.2 45 51 -2.2 28
02:25 1016 30 845 24.95 7.5 45.4 50 -2.2 28.1
02:30 1016 30 845 24.95 7.5 45.5 50 -2.1 28.2
02:35 1016 30 845 24.95 7.5 45.4 51 -2.1 28.2
02:40 1016 30 846 24.98 7.4 45.3 51 -2.1 28.3
02:45 1016 30 846 24.98 7.3 45.1 52 -2 28.5
02:50 1017 30.03 846 24.98 7.1 44.8 54 -1.6 29.1
02:55 1017 30.03 846 24.98 6.9 44.3 55 -1.5 29.3
03:00 1017 30.03 846 24.98 6.7 44.1 55 -1.6 29.2
03:05 1017 30.03 846 24.98 6.7 44.1 55 -1.7 29
03:10 1017 30.03 846 24.98 6.7 44.1 56 -1.5 29.3
03:15 1017 30.03 846 24.98 6.7 44 56 -1.4 29.4
03:20 1017 30.03 846 24.98 6.6 44 57 -1.3 29.6
03:25 1017 30.03 846 24.98 6.7 44 55 -1.6 29.1
03:30 1017 30.03 846 24.98 6.8 44.2 55 -1.6 29
03:35 1017 30.03 846 24.98 6.9 44.4 55 -1.5 29.4
03:40 1017 30.03 846 24.98 6.8 44.3 56 -1.4 29.5
03:45 1017 30.03 846 24.98 6.8 44.2 56 -1.3 29.6
03:50 1017 30.03 846 24.98 6.6 43.9 57 -1.3 29.7
03:55 1017 30.03 846 24.98 6.5 43.6 57 -1.3 29.6
04:00 1017 30.03 846 24.98 6.4 43.6 58 -1.2 29.8
04:05 1017 30.03 846 24.98 6.4 43.5 58 -1.2 29.8
04:10 1017 30.03 846 24.98 6.3 43.3 59 -1.1 30
04:15 1017 30.03 846 24.98 6.2 43.2 59 -1.1 29.9
04:20 1017 30.03 847 25.01 6.4 43.5 57 -1.4 29.5
04:25 1017 30.03 847 25.01 6.5 43.7 57 -1.4 29.4
04:30 1018 30.06 847 25.01 6.7 44 56 -1.5 29.3
04:35 1018 30.06 847 25.01 6.7 44.1 57 -1.3 29.7
04:40 1018 30.06 847 25.01 6.7 44.1 57 -1.2 29.9
04:45 1018 30.06 847 25.01 6.6 43.8 57 -1.3 29.6
04:50 1018 30.06 847 25.01 6.5 43.6 58 -1.2 29.9
04:55 1018 30.06 847 25.01 6.4 43.5 57 -1.4 29.4
05:00 1018 30.06 847 25.01 6.4 43.5 57 -1.4 29.4
05:05 1018 30.06 847 25.01 6.5 43.6 55 -1.9 28.6
05:10 1018 30.06 847 25.01 6.6 43.9 55 -1.7 28.9
05:15 1018 30.06 847 25.01 6.5 43.7 56 -1.7 29
05:20 1018 30.06 847 25.01 6.4 43.5 56 -1.7 28.9
05:25 1018 30.06 847 25.01 6.3 43.3 57 -1.7 29
05:30 1018 30.06 848 25.04 6.2 43.1 58 -1.4 29.5
05:35 1019 30.09 848 25.04 5 41.1 65 -1 30.2
05:40 1019 30.09 848 25.04 4.7 40.5 63 -1.6 29.1
05:45 1019 30.09 848 25.04 4.9 40.9 62 -1.6 29.1
05:50 1019 30.09 848 25.04 5.1 41.2 62 -1.5 29.2
05:55 1019 30.09 848 25.04 5.4 41.7 60 -1.8 28.7
06:00 1019 30.09 848 25.04 5.7 42.2 59 -1.6 29.1
06:05 1019 30.09 848 25.04 5.8 42.5 60 -1.4 29.4
06:10 1019 30.09 848 25.04 5.8 42.5 60 -1.2 29.8
06:15 1019 30.09 848 25.04 5.7 42.3 61 -1.2 29.9
06:20 1019 30.09 848 25.04 5.6 42 61 -1.3 29.7
06:25 1019 30.09 849 25.07 5.5 41.9 62 -1.1 30
06:30 1019 30.09 849 25.07 5.4 41.8 63 -1.1 30.1
06:35 1019 30.09 849 25.07 5.4 41.6 63 -1.2 29.9
06:40 1020 30.12 849 25.07 5.3 41.5 63 -1.2 29.8
06:45 1020 30.12 849 25.07 5.3 41.6 60 -1.7 28.9
06:50 1020 30.12 849 25.07 5.4 41.8 61 -1.5 29.4
06:55 1020 30.12 849 25.07 5.4 41.7 61 -1.6 29.1
07:00 1020 30.12 849 25.07 5.5 41.8 60 -1.7 29
07:05 1020 30.12 849 25.07 5.5 41.8 60 -1.6 29.2
07:10 1020 30.12 849 25.07 5.5 41.9 60 -1.7 28.9
07:15 1020 30.12 849 25.07 5.6 42 60 -1.6 29.2
07:20 1020 30.12 849 25.07 5.5 41.9 60 -1.6 29.2
07:25 1020 30.12 849 25.07 5.5 41.8 61 -1.5 29.3
07:30 1020 30.12 849 25.07 5.4 41.7 61 -1.5 29.3
07:35 1020 30.12 850 25.1 5.4 41.7 61 -1.5 29.3
07:40 1020 30.12 850 25.1 5.4 41.7 61 -1.4 29.4
07:45 1020 30.12 850 25.1 5.4 41.6 61 -1.5 29.2
07:50 1020 30.12 850 25.1 5.4 41.8 61 -1.5 29.3
07:55 1021 30.15 850 25.1 5.5 41.9 61 -1.3 29.6
08:00 1021 30.15 850 25.1 5.6 42.1 59 -1.6 29
08:05 1021 30.15 850 25.1 5.8 42.5 60 -1.4 29.5
08:10 1021 30.15 850 25.1 6 42.8 58 -1.6 29.1
08:15 1021 30.15 850 25.1 6.1 43 57 -1.7 28.9
08:20 1021 30.15 850 25.1 6.4 43.5 55 -1.9 28.5
08:25 1021 30.15 850 25.1 6.2 43.1 60 -1.1 30
08:30 1021 30.15 850 25.1 5.4 41.7 62 -1.2 29.9
08:35 1021 30.15 850 25.1 5.3 41.5 61 -1.7 28.9
08:40 1021 30.15 850 25.1 5.6 42 61 -1.4 29.5
08:45 1021 30.15 850 25.1 5.9 42.7 59 -1.5 29.3
08:50 1021 30.15 850 25.1 6.3 43.3 56 -2 28.5
08:55 1021 30.15 850 25.1 6.6 43.9 54 -2.1 28.2
09:00 1021 30.15 850 25.1 6.9 44.4 55 -1.5 29.3
09:05 1021 30.15 850 25.1 7 44.7 52 -2.1 28.3
09:10 1021 30.15 850 25.1 7.3 45.2 51 -2 28.4
09:15 1021 30.15 850 25.1 7.6 45.6 51 -2 28.4
09:20 1021 30.15 851 25.13 7.5 45.5 50 -2.1 28.2
09:25 1021 30.15 851 25.13 7.8 46.1 49 -2.2 28
09:30 1022 30.18 851 25.13 7.6 45.8 49 -2.4 27.7
09:35 1022 30.18 851 25.13 8.1 46.6 48 -2.2 28
09:40 1022 30.18 851 25.13 8.1 46.5 48 -2.3 27.8
09:45 1022 30.18 851 25.13 8.2 46.7 48 -2.2 28.1
09:50 1022 30.18 851 25.13 8 46.3 48 -2.3 27.8
09:55 1022 30.18 851 25.13 8 46.4 49 -2 28.4
10:00 1022 30.18 851 25.13 7.9 46.1 49 -2.3 27.9
10:05 1022 30.18 851 25.13 8 46.4 48 -2.4 27.7
10:10 1022 30.18 851 25.13 8.7 47.6 46 -2.2 28
10:15 1022 30.18 851 25.13 9.3 48.7 44 -2.4 27.7
10:20 1022 30.18 851 25.13 9.7 49.4 44 -1.9 28.7
10:25 1022 30.18 851 25.13 10 50 42 -2.3 27.8
10:30 1022 30.18 851 25.13 10.4 50.8 40 -2.4 27.6
10:35 1022 30.18 851 25.13 10.6 51 41 -2 28.3
10:40 1022 30.18 851 25.13 10.6 51 42 -1.8 28.7
10:45 1022 30.18 851 25.13 10.2 50.4 41 -2.4 27.8
10:50 1022 30.18 851 25.13 10.5 50.8 41 -2.2 28.1
10:55 1022 30.18 851 25.13 11 51.7 40 -2.1 28.2
11:00 1022 30.18 851 25.13 10.9 51.6 39 -2.3 27.8
11:05 1022 30.18 851 25.13 10.6 51.1 42 -1.8 28.7
11:10 1022 30.18 851 25.13 10.8 51.4 39 -2.6 27.3
11:15 1022 30.18 851 25.13 11.1 51.9 39 -2.4 27.6
11:20 1022 30.18 851 25.13 11.1 51.9 40 -2.1 28.3
11:25 1022 30.18 851 25.13 11.4 52.4 38 -2.3 27.8
11:30 1022 30.18 851 25.13 11.7 53 37 -2.6 27.4
11:35 1022 30.18 851 25.13 11.8 53.2 38 -2.1 28.2
11:40 1022 30.18 851 25.13 11.8 53.3 39 -1.8 28.8
11:45 1022 30.18 851 25.13 11.8 53.2 38 -2 28.4
11:50 1022 30.18 851 25.13 12.1 53.7 36 -2.5 27.6
11:55 1022 30.18 851 25.13 12.4 54.4 36 -2 28.3
12:00 1022 30.18 851 25.13 12.7 54.9 36 -2 28.4
12:05 1022 30.18 851 25.13 12.9 55.2 35 -2 28.5
12:10 1022 30.18 851 25.13 12.6 54.8 36 -2.1 28.2
12:15 1022 30.18 851 25.13 12.8 55 35 -2.3 27.8
12:20 1022 30.18 851 25.13 12.7 54.9 36 -2 28.5
12:25 1022 30.18 851 25.13 12.4 54.4 36 -2.3 27.8
12:30 1022 30.18 851 25.13 12.9 55.1 33 -2.8 26.9
12:35 1022 30.18 851 25.13 13.1 55.6 33 -2.8 27
12:40 1022 30.18 851 25.13 13.3 55.9 32 -3 26.6
12:45 1022 30.18 851 25.13 13.4 56.1 33 -2.6 27.3
12:50 1022 30.18 851 25.13 13.8 56.8 31 -3 26.5
12:55 1022 30.18 851 25.13 14.1 57.4 30 -2.9 26.7
13:00 1022 30.18 851 25.13 14.1 57.3 29 -3.7 25.4
13:05 1022 30.18 851 25.13 14 57.3 28 -4.3 24.3
13:10 1022 30.18 851 25.13 13.9 57 28 -4.3 24.3
13:15 1022 30.18 851 25.13 14 57.3 29 -3.7 25.3
13:20 1022 30.18 851 25.13 14.4 58 27 -4.5 23.9
13:25 1022 30.18 851 25.13 14.3 57.7 28 -3.9 25
13:30 1022 30.18 851 25.13 14.2 57.6 27 -4.2 24.4
13:35 1022 30.18 851 25.13 14.5 58.1 27 -4.1 24.6
13:40 1022 30.18 851 25.13 14.4 57.8 28 -3.9 25
13:45 1021 30.15 851 25.13 14.7 58.4 28 -3.6 25.4
13:50 1021 30.15 851 25.13 14.5 58.1 29 -3.4 25.9
13:55 1021 30.15 851 25.13 14.2 57.6 29 -3.3 26.1
14:00 1021 30.15 851 25.13 13.9 57.1 29 -3.6 25.6
14:05 1022 30.18 851 25.13 14.2 57.5 28 -4 24.9
14:10 1022 30.18 851 25.13 15.1 59.1 27 -3.8 25.1
14:15 1022 30.18 851 25.13 15.3 59.6 27 -3.7 25.4
14:20 1021 30.15 851 25.13 14.7 58.4 26 -4.5 23.8
14:25 1021 30.15 851 25.13 15 58.9 26 -4.1 24.6
14:30 1021 30.15 851 25.13 15.6 60.2 24 -4.5 23.9
14:35 1021 30.15 851 25.13 15.1 59.3 25 -4.7 23.5
14:40 1021 30.15 851 25.13 14.9 58.9 26 -4.5 24
14:45 1021 30.15 851 25.13 15.2 59.3 25 -4.6 23.8
14:50 1021 30.15 851 25.13 14.7 58.5 25 -5.1 22.9
14:55 1021 30.15 851 25.13 14.7 58.5 24 -5.8 21.6
15:00 1021 30.15 851 25.13 14.8 58.7 25 -5.2 22.7
15:05 1021 30.15 850 25.1 15.3 59.6 23 -5.5 22.1
15:10 1021 30.15 850 25.1 15.5 59.8 24 -5 23
15:15 1021 30.15 850 25.1 15.7 60.3 23 -5 23
15:20 1021 30.15 850 25.1 16 60.7 23 -4.8 23.4
15:25 1021 30.15 850 25.1 15.8 60.4 23 -5.1 22.8
15:30 1021 30.15 850 25.1 15.6 60.2 23 -5.1 22.8
15:35 1021 30.15 850 25.1 15.6 60.1 24 -4.8 23.4
15:40 1021 30.15 850 25.1 15.6 60.1 23 -5.4 22.3
15:45 1021 30.15 850 25.1 15.5 60 24 -5.1 22.9
15:50 1021 30.15 850 25.1 15.5 60 24 -5 22.9
15:55 1021 30.15 850 25.1 15.4 59.8 24 -5.1 22.8
16:00 1021 30.15 850 25.1 15.7 60.2 23 -5.1 22.8
16:05 1021 30.15 850 25.1 15.4 59.8 24 -5.2 22.6
16:10 1021 30.15 850 25.1 15.7 60.2 23 -5.1 22.8
16:15 1021 30.15 850 25.1 15.5 59.8 24 -5.1 22.8
16:20 1021 30.15 850 25.1 15.5 59.9 24 -5.1 22.8
16:25 1021 30.15 851 25.13 15.6 60.2 23 -5.3 22.4
16:30 1021 30.15 850 25.1 15.7 60.2 23 -5.1 22.7
16:35 1021 30.15 851 25.13 15.6 60.1 24 -4.9 23.2
16:40 1021 30.15 851 25.13 15.6 60.1 23 -5.1 22.8
16:45 1021 30.15 851 25.13 15.7 60.2 23 -5.2 22.7
16:50 1021 30.15 851 25.13 15.5 59.9 24 -4.9 23.2
16:55 1021 30.15 851 25.13 14.9 58.9 25 -4.6 23.6
17:00 1021 30.15 851 25.13 14.6 58.3 25 -4.9 23.2
17:05 1021 30.15 851 25.13 15.1 59.2 24 -5.2 22.7
17:10 1021 30.15 851 25.13 15 59 24 -5.4 22.4
17:15 1021 30.15 851 25.13 15 59 24 -5.1 22.9
17:20 1021 30.15 851 25.13 15.4 59.6 24 -4.8 23.3
17:25 1021 30.15 851 25.13 15.5 59.8 24 -4.8 23.4
17:30 1021 30.15 851 25.13 15.5 59.9 24 -4.7 23.5
17:35 1021 30.15 851 25.13 15.6 60 24 -4.7 23.5
17:40 1021 30.15 851 25.13 15.5 59.8 24 -4.9 23.3
17:45 1021 30.15 851 25.13 15.5 59.9 26 -4.1 24.6
17:50 1021 30.15 850 25.1 15.3 59.6 25 -4.7 23.5
17:55 1021 30.15 850 25.1 15.2 59.4 25 -4.7 23.5
18:00 1021 30.15 850 25.1 15.3 59.5 25 -4.4 24.1
18:05 1021 30.15 851 25.13 15.1 59.2 26 -4 24.8
18:10 1021 30.15 851 25.13 14.9 58.8 27 -3.8 25.1
18:15 1021 30.15 851 25.13 14.4 57.8 28 -3.8 25.2
18:20 1021 30.15 851 25.13 14 57.1 28 -4.1 24.6
18:25 1022 30.18 851 25.13 13.9 56.9 29 -3.8 25.2
18:30 1022 30.18 851 25.13 13.6 56.4 30 -3.7 25.4
18:35 1022 30.18 851 25.13 13.3 55.9 31 -3.6 25.5
18:40 1022 30.18 851 25.13 13.2 55.8 30 -3.9 25
18:45 1022 30.18 851 25.13 13 55.4 31 -3.6 25.5
18:50 1022 30.18 851 25.13 12.7 54.9 32 -3.7 25.4
18:55 1022 30.18 851 25.13 12.6 54.6 32 -3.7 25.3
19:00 1022 30.18 851 25.13 12.3 54.2 33 -3.6 25.5
19:05 1022 30.18 851 25.13 12.2 53.9 32 -3.8 25.2
19:10 1022 30.18 851 25.13 12.1 53.7 34 -3.4 25.9
19:15 1022 30.18 851 25.13 11.8 53.2 36 -2.6 27.4
19:20 1022 30.18 851 25.13 11.3 52.3 37 -2.8 26.9
19:25 1022 30.18 851 25.13 10.9 51.7 37 -3.1 26.4
19:30 1022 30.18 851 25.13 10.8 51.4 37 -3.2 26.2
19:35 1022 30.18 851 25.13 10.8 51.4 39 -2.7 27.2
19:40 1022 30.18 851 25.13 9.7 49.5 46 -1.4 29.5
19:45 1022 30.18 851 25.13 8.7 47.7 45 -2.6 27.2
19:50 1022 30.18 851 25.13 9 48.1 41 -3.4 25.8
19:55 1022 30.18 851 25.13 9.2 48.5 41 -3.3 26.1
20:00 1022 30.18 851 25.13 9.3 48.7 41 -3.2 26.3
20:05 1022 30.18 851 25.13 9.3 48.7 37 -4.5 23.9
20:10 1022 30.18 851 25.13 9.9 49.9 37 -4.2 24.5
20:15 1022 30.18 851 25.13 9.8 49.7 43 -2.1 28.2
20:20 1022 30.18 851 25.13 8.3 46.9 48 -2 28.4
20:25 1022 30.18 852 25.16 7.4 45.2 49 -2.6 27.3
20:30 1022 30.18 852 25.16 7.4 45.3 48 -2.8 27
20:35 1022 30.18 852 25.16 7.4 45.4 47 -3 26.6
20:40 1022 30.18 852 25.16 7.8 46.1 45 -3.4 25.8
20:45 1022 30.18 852 25.16 8.1 46.6 45 -3.2 26.3
20:50 1022 30.18 852 25.16 7.8 46.1 48 -2.5 27.4
20:55 1022 30.18 852 25.16 7.2 45 50 -2.5 27.5
21:00 1022 30.18 852 25.16 6.8 44.2 53 -2.2 28.1
21:05 1022 30.18 852 25.16 6.1 42.9 56 -2 28.5
21:10 1022 30.18 852 25.16 5.6 42.1 55 -2.8 27
21:15 1022 30.18 852 25.16 6.2 43.1 50 -3.4 25.8
21:20 1022 30.18 852 25.16 6.7 44.1 48 -3.4 25.8
21:25 1022 30.18 852 25.16 7.2 44.9 46 -3.7 25.3
21:30 1023 30.21 852 25.16 7.3 45.1 46 -3.7 25.3
21:35 1023 30.21 852 25.16 7.4 45.3 45 -3.6 25.5
21:40 1023 30.21 852 25.16 7.3 45.2 46 -3.6 25.5
21:45 1023 30.21 852 25.16 7.2 44.9 47 -3.4 25.8
21:50 1023 30.21 852 25.16 7 44.7 47 -3.6 25.5
21:55 1023 30.21 852 25.16 6.9 44.5 47 -3.7 25.3
22:00 1023 30.21 852 25.16 7 44.7 46 -3.7 25.4
22:05 1023 30.21 852 25.16 6.8 44.2 48 -3.4 25.8
22:10 1023 30.21 852 25.16 6.6 43.9 47 -3.9 24.9
22:15 1023 30.21 852 25.16 6.6 43.9 49 -3.5 25.8
22:20 1023 30.21 852 25.16 6.2 43.1 49 -3.6 25.5
22:25 1023 30.21 852 25.16 6.3 43.3 47 -4.2 24.5
22:30 1023 30.21 852 25.16 6.7 44.1 47 -3.9 25
22:35 1023 30.21 852 25.16 6.6 43.9 48 -3.6 25.6
22:40 1023 30.21 852 25.16 6.2 43.1 50 -3.5 25.6
22:45 1023 30.21 852 25.16 5.8 42.5 52 -3.3 26
22:50 1023 30.21 852 25.16 5.6 42 53 -3.4 25.9
22:55 1023 30.21 852 25.16 5.5 41.8 53 -3.4 25.9
23:00 1023 30.21 852 25.16 5.4 41.6 54 -3.3 26.1
23:05 1023 30.21 852 25.16 5.4 41.7 52 -3.6 25.6
23:10 1023 30.21 852 25.16 5.5 41.8 53 -3.3 26
23:15 1022 30.18 852 25.16 5.5 42 52 -3.6 25.6
23:20 1022 30.18 852 25.16 5.8 42.5 47 -4.6 23.8
23:25 1022 30.18 852 25.16 6.4 43.5 48 -3.8 25.2
23:30 1022 30.18 852 25.16 6.3 43.3 49 -3.6 25.4
23:35 1022 30.18 852 25.16 6.4 43.5 47 -4.1 24.6
23:40 1022 30.18 852 25.16 6.7 44 45 -4.5 23.8
23:45 1022 30.18 852 25.16 7.1 44.7 45 -4.1 24.7
23:50 1022 30.18 852 25.16 7 44.6 45 -4.2 24.5
23:55 1022 30.18 852 25.16 6.8 44.2 46 -4.1 24.6
24:00 1022 30.18 852 25.16 6.7 44 46 -4.1 24.6